メインページ
METAR-TAF:

METAR-TAF

空港 :

アムステルダム, オランダ

アムステルダム・スキポール空港

緯度: 52-18N, 経度: 004-46E, 海抜: -4m

現時点の気象観測

当レポートは12分前の19:25(UTC)に作成
東/北東の風 10kt、北/北東からの間で変化する
気温 -2°C
湿度 63%
気圧 1031 hPa
視程10km以上
高度3300ftの雲はほとんどない

METAR: EHAM 251925Z 06010KT 020V090 9999 FEW033 M02/M08 Q1031 NOSIG

時間: 20:37 (19:37 UTC)

予報

当レポートは2時間43分前の16:54(UTC)に作成
予報は25日の 18時(UTC)から 26日の 24時(UTC)まで有効
東/北東の風 10kt
視程10km以上
1,500メートル以下は雲なし、積乱雲なし
26日の 15時(UTC)から 26日の 18時(UTC)まで徐々に
北東の風 6kt

TAF: EHAM 251654Z 2518/2624 07010KT CAVOK BECMG 2615/2618 04006KT

4,000以上の空港の気象観測と天気予報(METAR報とTAF報)

利用可能な観測所は地図上に黄色い丸と赤い丸で示す。

丸の上にカーソルを重ねると観測所名を参照できる。

次にクリックすると気象観測と天気予報を参照できる。

マップの切り替え:黒色「×」印の緑ボタンをクリックして拡大、「-」印の緑ボタンをクリックして縮小、緑色の三角印をクリックして隣りの地図に切り替え


METAR-TAF: